UAL19T KIAH-KEGE
Flight info
| Callsign | UAL19T |
|---|---|
| Flight time | 2h 25m |
| Altitude | 30000 |
| Route | STYCK8 DOLEY MRMAC ROLLS/N0439F320 TOTOE LPINE VAAIL1 |
| Aircraft | B739/M-SDE2E3FGHIRWXY/LB1 |
Departure
| Time | 2026-04-26 19:02 |
|---|---|
| Airport | George Bush Intercontinental Airport (KIAH) |
Arrival
| Time | 2026-04-26 21:27 |
|---|---|
| Airport | Eagle County Regional Airport (KEGE) |
| Time | Latitude | Longitude | Altitude | Speed | Heading |
|---|---|---|---|---|---|
| 2026-04-26 18:26 | 29.98396 | -95.33795 | 106 ft | 0 kts | 324° |
| 2026-04-26 18:51 | 29.98395 | -95.33793 | 106 ft | 2 kts | 324° |
| 2026-04-26 18:51 | 29.98376 | -95.33774 | 105 ft | 4 kts | 300° |
| 2026-04-26 18:51 | 29.98370 | -95.33747 | 103 ft | 4 kts | 252° |
| 2026-04-26 18:51 | 29.98384 | -95.33725 | 104 ft | 4 kts | 203° |
| 2026-04-26 18:52 | 29.98399 | -95.33720 | 104 ft | 0 kts | 175° |
| 2026-04-26 18:55 | 29.98382 | -95.33719 | 106 ft | 5 kts | 178° |
| 2026-04-26 18:56 | 29.98334 | -95.33743 | 106 ft | 10 kts | 222° |
| 2026-04-26 18:56 | 29.98317 | -95.33834 | 106 ft | 13 kts | 269° |
| 2026-04-26 18:56 | 29.98317 | -95.33939 | 106 ft | 14 kts | 273° |
| 2026-04-26 18:56 | 29.98353 | -95.34053 | 106 ft | 16 kts | 303° |
| 2026-04-26 18:57 | 29.98376 | -95.34172 | 106 ft | 16 kts | 271° |
| 2026-04-26 18:57 | 29.98376 | -95.34258 | 106 ft | 17 kts | 270° |
| 2026-04-26 18:57 | 29.98365 | -95.34433 | 106 ft | 15 kts | 244° |
| 2026-04-26 18:57 | 29.98325 | -95.34537 | 105 ft | 14 kts | 263° |
| 2026-04-26 18:58 | 29.98325 | -95.34657 | 106 ft | 18 kts | 270° |
| 2026-04-26 18:58 | 29.98324 | -95.34821 | 106 ft | 22 kts | 270° |
| 2026-04-26 18:58 | 29.98323 | -95.34992 | 106 ft | 21 kts | 269° |
| 2026-04-26 18:58 | 29.98324 | -95.35132 | 106 ft | 14 kts | 270° |
| 2026-04-26 18:59 | 29.98296 | -95.35228 | 106 ft | 12 kts | 251° |
| 2026-04-26 18:59 | 29.98332 | -95.35293 | 106 ft | 10 kts | 331° |
| 2026-04-26 18:59 | 29.98412 | -95.35341 | 106 ft | 16 kts | 332° |
| 2026-04-26 18:59 | 29.98528 | -95.35413 | 104 ft | 20 kts | 332° |
| 2026-04-26 19:00 | 29.98649 | -95.35487 | 106 ft | 19 kts | 332° |
| 2026-04-26 19:00 | 29.98750 | -95.35548 | 106 ft | 12 kts | 332° |
| 2026-04-26 19:00 | 29.98773 | -95.35609 | 106 ft | 9 kts | 256° |
| 2026-04-26 19:00 | 29.98748 | -95.35672 | 106 ft | 8 kts | 242° |
| 2026-04-26 19:01 | 29.98712 | -95.35712 | 107 ft | 8 kts | 201° |
| 2026-04-26 19:01 | 29.98637 | -95.35694 | 107 ft | 18 kts | 152° |
| 2026-04-26 19:01 | 29.98312 | -95.35496 | 105 ft | 88 kts | 152° |
| 2026-04-26 19:01 | 29.97579 | -95.35047 | 106 ft | 147 kts | 152° |
| 2026-04-26 19:02 | 29.96568 | -95.34433 | 417 ft | 167 kts | 150° |
| 2026-04-26 19:02 | 29.95587 | -95.33785 | 1253 ft | 164 kts | 142° |
| 2026-04-26 19:02 | 29.94815 | -95.32702 | 1503 ft | 190 kts | 115° |
| 2026-04-26 19:02 | 29.94629 | -95.31684 | 1707 ft | 203 kts | 92° |
| 2026-04-26 19:03 | 29.95365 | -95.29574 | 2075 ft | 237 kts | 50° |
| 2026-04-26 19:03 | 29.96776 | -95.28509 | 2524 ft | 250 kts | 25° |
| 2026-04-26 19:03 | 29.98385 | -95.27536 | 2715 ft | 275 kts | 32° |
| 2026-04-26 19:03 | 30.00066 | -95.26375 | 3241 ft | 284 kts | 33° |
| 2026-04-26 19:04 | 30.01770 | -95.25206 | 4019 ft | 285 kts | 32° |
| 2026-04-26 19:04 | 30.03473 | -95.24031 | 4758 ft | 288 kts | 32° |
| 2026-04-26 19:04 | 30.05204 | -95.22813 | 5448 ft | 291 kts | 32° |
| 2026-04-26 19:04 | 30.06924 | -95.21593 | 6244 ft | 292 kts | 32° |
| 2026-04-26 19:05 | 30.10766 | -95.21239 | 7485 ft | 290 kts | 327° |
| 2026-04-26 19:05 | 30.12271 | -95.22749 | 8138 ft | 287 kts | 311° |
| 2026-04-26 19:05 | 30.13718 | -95.24365 | 8791 ft | 292 kts | 314° |
| 2026-04-26 19:06 | 30.15224 | -95.25947 | 9544 ft | 293 kts | 315° |
| 2026-04-26 19:06 | 30.16750 | -95.27521 | 10219 ft | 295 kts | 315° |
| 2026-04-26 19:06 | 30.18307 | -95.29122 | 10468 ft | 314 kts | 315° |
| 2026-04-26 19:06 | 30.19999 | -95.30855 | 10615 ft | 334 kts | 315° |
| 2026-04-26 19:07 | 30.21794 | -95.32693 | 10779 ft | 352 kts | 316° |
| 2026-04-26 19:07 | 30.23642 | -95.34582 | 11192 ft | 359 kts | 316° |
| 2026-04-26 19:07 | 30.25523 | -95.36500 | 11852 ft | 359 kts | 316° |
| 2026-04-26 19:07 | 30.27395 | -95.38408 | 12553 ft | 358 kts | 316° |
| 2026-04-26 19:08 | 30.29262 | -95.40318 | 13174 ft | 359 kts | 316° |
| 2026-04-26 19:08 | 30.31114 | -95.42216 | 13775 ft | 360 kts | 316° |
| 2026-04-26 19:08 | 30.32997 | -95.44142 | 14321 ft | 361 kts | 316° |
| 2026-04-26 19:08 | 30.34886 | -95.46075 | 14871 ft | 362 kts | 316° |
| 2026-04-26 19:09 | 30.36785 | -95.48020 | 15418 ft | 364 kts | 316° |
| 2026-04-26 19:09 | 30.38661 | -95.49943 | 15947 ft | 365 kts | 316° |
| 2026-04-26 19:09 | 30.40574 | -95.51906 | 16473 ft | 366 kts | 316° |
| 2026-04-26 19:09 | 30.42489 | -95.53872 | 16989 ft | 368 kts | 316° |
| 2026-04-26 19:10 | 30.44413 | -95.55848 | 17499 ft | 370 kts | 316° |
| 2026-04-26 19:10 | 30.46351 | -95.57841 | 18013 ft | 372 kts | 316° |
| 2026-04-26 19:10 | 30.48291 | -95.59835 | 18475 ft | 373 kts | 316° |
| 2026-04-26 19:10 | 30.50241 | -95.61841 | 18923 ft | 375 kts | 316° |
| 2026-04-26 19:11 | 30.52180 | -95.63824 | 19273 ft | 377 kts | 317° |
| 2026-04-26 19:11 | 30.54332 | -95.65611 | 19669 ft | 383 kts | 326° |
| 2026-04-26 19:11 | 30.56734 | -95.67002 | 20077 ft | 387 kts | 332° |
| 2026-04-26 19:11 | 30.59201 | -95.68299 | 20484 ft | 390 kts | 332° |
| 2026-04-26 19:12 | 30.61685 | -95.69598 | 20937 ft | 392 kts | 332° |
| 2026-04-26 19:12 | 30.64177 | -95.70908 | 21338 ft | 394 kts | 331° |
| 2026-04-26 19:12 | 30.66656 | -95.72218 | 21691 ft | 397 kts | 331° |
| 2026-04-26 19:12 | 30.69173 | -95.73557 | 22041 ft | 399 kts | 331° |
| 2026-04-26 19:13 | 30.71707 | -95.74909 | 22436 ft | 401 kts | 331° |
| 2026-04-26 19:13 | 30.74254 | -95.76271 | 22836 ft | 402 kts | 330° |
| 2026-04-26 19:13 | 30.76803 | -95.77636 | 23221 ft | 404 kts | 330° |
| 2026-04-26 19:13 | 30.79347 | -95.79001 | 23536 ft | 407 kts | 330° |
| 2026-04-26 19:14 | 30.81934 | -95.80389 | 23818 ft | 408 kts | 330° |
| 2026-04-26 19:14 | 30.84525 | -95.81779 | 24176 ft | 410 kts | 330° |
| 2026-04-26 19:14 | 30.87119 | -95.83172 | 24521 ft | 411 kts | 330° |
| 2026-04-26 19:14 | 30.88844 | -95.84099 | 24746 ft | 411 kts | 330° |
| 2026-04-26 19:15 | 30.92301 | -95.85958 | 25170 ft | 413 kts | 330° |
| 2026-04-26 19:15 | 30.94932 | -95.87374 | 25478 ft | 415 kts | 330° |
| 2026-04-26 19:15 | 30.97530 | -95.88772 | 25831 ft | 415 kts | 330° |
| 2026-04-26 19:15 | 31.00152 | -95.90183 | 26299 ft | 412 kts | 329° |
| 2026-04-26 19:16 | 31.02754 | -95.91585 | 26787 ft | 409 kts | 329° |
| 2026-04-26 19:16 | 31.05337 | -95.92978 | 27251 ft | 408 kts | 329° |
| 2026-04-26 19:16 | 31.07916 | -95.94370 | 27669 ft | 407 kts | 329° |
| 2026-04-26 19:16 | 31.10449 | -95.95738 | 28114 ft | 405 kts | 329° |
| 2026-04-26 19:17 | 31.13017 | -95.97081 | 28648 ft | 404 kts | 332° |
| 2026-04-26 19:17 | 31.15665 | -95.98191 | 29200 ft | 403 kts | 334° |
| 2026-04-26 19:17 | 31.18328 | -95.99213 | 29650 ft | 403 kts | 335° |
| 2026-04-26 19:17 | 31.21006 | -96.00215 | 29852 ft | 406 kts | 335° |
| 2026-04-26 19:18 | 31.23713 | -96.01231 | 29856 ft | 407 kts | 335° |
| 2026-04-26 19:18 | 31.29069 | -96.03263 | 29860 ft | 403 kts | 334° |
| 2026-04-26 19:19 | 31.34383 | -96.05309 | 29851 ft | 401 kts | 334° |
| 2026-04-26 19:19 | 31.39690 | -96.07372 | 29862 ft | 402 kts | 334° |
| 2026-04-26 19:20 | 31.44993 | -96.09440 | 29877 ft | 403 kts | 334° |
| 2026-04-26 19:20 | 31.50367 | -96.11471 | 29850 ft | 405 kts | 333° |
| 2026-04-26 19:21 | 31.55681 | -96.13582 | 29855 ft | 406 kts | 333° |
| 2026-04-26 19:21 | 31.61044 | -96.15698 | 29861 ft | 406 kts | 333° |
| 2026-04-26 19:22 | 31.66416 | -96.17801 | 29870 ft | 407 kts | 334° |
| 2026-04-26 19:22 | 31.71806 | -96.19818 | 29832 ft | 410 kts | 334° |
| 2026-04-26 19:23 | 31.77178 | -96.22065 | 29858 ft | 410 kts | 333° |
| 2026-04-26 19:23 | 31.82612 | -96.24202 | 29880 ft | 413 kts | 334° |
| 2026-04-26 19:24 | 31.88053 | -96.26306 | 29867 ft | 415 kts | 334° |
| 2026-04-26 19:24 | 31.96301 | -96.29536 | 29875 ft | 416 kts | 334° |
| 2026-04-26 19:25 | 31.99943 | -96.30972 | 29868 ft | 416 kts | 334° |
| 2026-04-26 19:25 | 32.07245 | -96.33853 | 29866 ft | 415 kts | 333° |
| 2026-04-26 19:26 | 32.12723 | -96.36019 | 29872 ft | 413 kts | 333° |
| 2026-04-26 19:26 | 32.18135 | -96.38166 | 29860 ft | 411 kts | 332° |
| 2026-04-26 19:27 | 32.23211 | -96.41017 | 29874 ft | 400 kts | 323° |
| 2026-04-26 19:27 | 32.28093 | -96.44156 | 29855 ft | 398 kts | 323° |
| 2026-04-26 19:28 | 32.32925 | -96.47253 | 29855 ft | 396 kts | 323° |
| 2026-04-26 19:28 | 32.37788 | -96.50342 | 29853 ft | 396 kts | 323° |
| 2026-04-26 19:29 | 32.42665 | -96.53430 | 29852 ft | 397 kts | 323° |
| 2026-04-26 19:29 | 32.47522 | -96.56503 | 29846 ft | 398 kts | 323° |
| 2026-04-26 19:30 | 32.52437 | -96.59615 | 29843 ft | 400 kts | 323° |
| 2026-04-26 19:30 | 32.56537 | -96.62214 | 29834 ft | 402 kts | 323° |
| 2026-04-26 19:31 | 32.62286 | -96.65862 | 29833 ft | 403 kts | 323° |
| 2026-04-26 19:31 | 32.67191 | -96.68978 | 29832 ft | 404 kts | 323° |
| 2026-04-26 19:32 | 32.72154 | -96.72135 | 29884 ft | 405 kts | 323° |
| 2026-04-26 19:32 | 32.77113 | -96.75295 | 29850 ft | 405 kts | 323° |
| 2026-04-26 19:33 | 32.82057 | -96.78447 | 29838 ft | 404 kts | 323° |
| 2026-04-26 19:33 | 32.87002 | -96.81603 | 29842 ft | 402 kts | 323° |
| 2026-04-26 19:34 | 32.91925 | -96.84751 | 29846 ft | 400 kts | 322° |
| 2026-04-26 19:34 | 32.96790 | -96.87866 | 29853 ft | 399 kts | 322° |
| 2026-04-26 19:35 | 33.01685 | -96.91006 | 29867 ft | 399 kts | 323° |
| 2026-04-26 19:35 | 33.06579 | -96.94150 | 29822 ft | 400 kts | 323° |
| 2026-04-26 19:36 | 33.09851 | -96.96253 | 29811 ft | 399 kts | 323° |
| 2026-04-26 19:36 | 33.15535 | -96.99908 | 29820 ft | 399 kts | 323° |
| 2026-04-26 19:37 | 33.20426 | -97.03060 | 29821 ft | 399 kts | 323° |
| 2026-04-26 19:37 | 33.25283 | -97.06194 | 29824 ft | 399 kts | 323° |
| 2026-04-26 19:38 | 33.30181 | -97.09358 | 29822 ft | 399 kts | 323° |
| 2026-04-26 19:38 | 33.35049 | -97.12506 | 29816 ft | 400 kts | 323° |
| 2026-04-26 19:39 | 33.39966 | -97.15691 | 29814 ft | 401 kts | 323° |
| 2026-04-26 19:39 | 33.44879 | -97.18877 | 29829 ft | 401 kts | 323° |
| 2026-04-26 19:40 | 33.49763 | -97.22047 | 29845 ft | 401 kts | 323° |
| 2026-04-26 19:40 | 33.54689 | -97.25250 | 29856 ft | 402 kts | 323° |
| 2026-04-26 19:41 | 33.59599 | -97.28447 | 29836 ft | 403 kts | 323° |
| 2026-04-26 19:41 | 33.63701 | -97.31119 | 29844 ft | 403 kts | 323° |
| 2026-04-26 19:42 | 33.69445 | -97.34868 | 29826 ft | 404 kts | 323° |
| 2026-04-26 19:42 | 33.74394 | -97.38101 | 29848 ft | 403 kts | 324° |
| 2026-04-26 19:43 | 33.79281 | -97.41300 | 29773 ft | 403 kts | 324° |
| 2026-04-26 19:43 | 33.84193 | -97.44518 | 29766 ft | 403 kts | 324° |
| 2026-04-26 19:44 | 33.89096 | -97.47735 | 29759 ft | 403 kts | 324° |
| 2026-04-26 19:44 | 33.94025 | -97.50973 | 29771 ft | 402 kts | 324° |
| 2026-04-26 19:45 | 33.98917 | -97.54191 | 29782 ft | 402 kts | 324° |
| 2026-04-26 19:45 | 34.03837 | -97.57432 | 29768 ft | 402 kts | 324° |
| 2026-04-26 19:46 | 34.08723 | -97.60656 | 29759 ft | 402 kts | 324° |
| 2026-04-26 19:46 | 34.13634 | -97.63899 | 29742 ft | 402 kts | 324° |
| 2026-04-26 19:47 | 34.17718 | -97.66599 | 29745 ft | 401 kts | 323° |
| 2026-04-26 19:47 | 34.23415 | -97.70372 | 29762 ft | 400 kts | 323° |
| 2026-04-26 19:48 | 34.28304 | -97.73614 | 29750 ft | 400 kts | 323° |
| 2026-04-26 19:48 | 34.33161 | -97.76840 | 29737 ft | 400 kts | 323° |
| 2026-04-26 19:49 | 34.38015 | -97.80067 | 29741 ft | 399 kts | 323° |
| 2026-04-26 19:49 | 34.42852 | -97.83287 | 29740 ft | 399 kts | 323° |
| 2026-04-26 19:50 | 34.47725 | -97.86537 | 29794 ft | 399 kts | 323° |
| 2026-04-26 19:50 | 34.52600 | -97.89791 | 29802 ft | 399 kts | 323° |
| 2026-04-26 19:51 | 34.57439 | -97.93027 | 29790 ft | 399 kts | 323° |
| 2026-04-26 19:51 | 34.62308 | -97.96286 | 29780 ft | 399 kts | 323° |
| 2026-04-26 19:52 | 34.67180 | -97.99551 | 29771 ft | 399 kts | 323° |
| 2026-04-26 19:52 | 34.72019 | -98.02800 | 29750 ft | 399 kts | 323° |
| 2026-04-26 19:53 | 34.76886 | -98.06072 | 29733 ft | 399 kts | 323° |
| 2026-04-26 19:53 | 34.81752 | -98.09362 | 29733 ft | 398 kts | 320° |
| 2026-04-26 19:54 | 34.85899 | -98.13535 | 29736 ft | 383 kts | 304° |
| 2026-04-26 19:54 | 34.89228 | -98.18580 | 29727 ft | 382 kts | 302° |
| 2026-04-26 19:55 | 34.92536 | -98.23661 | 29720 ft | 382 kts | 302° |
| 2026-04-26 19:55 | 34.95846 | -98.28723 | 29715 ft | 383 kts | 302° |
| 2026-04-26 19:56 | 34.99183 | -98.33816 | 29713 ft | 384 kts | 302° |
| 2026-04-26 19:56 | 35.02512 | -98.38896 | 29704 ft | 385 kts | 302° |
| 2026-04-26 19:57 | 35.05863 | -98.44015 | 29701 ft | 385 kts | 302° |
| 2026-04-26 19:57 | 35.09196 | -98.49114 | 29705 ft | 385 kts | 302° |
| 2026-04-26 19:58 | 35.12542 | -98.54241 | 29713 ft | 385 kts | 302° |
| 2026-04-26 19:58 | 35.15863 | -98.59337 | 29718 ft | 385 kts | 302° |
| 2026-04-26 19:59 | 35.19199 | -98.64464 | 29716 ft | 384 kts | 302° |
| 2026-04-26 19:59 | 35.22504 | -98.69549 | 29734 ft | 383 kts | 302° |
| 2026-04-26 20:00 | 35.25819 | -98.74659 | 29725 ft | 383 kts | 301° |
| 2026-04-26 20:00 | 35.29128 | -98.79767 | 29761 ft | 383 kts | 301° |
| 2026-04-26 20:01 | 35.32437 | -98.84882 | 29775 ft | 383 kts | 301° |
| 2026-04-26 20:01 | 35.35730 | -98.89981 | 29783 ft | 383 kts | 301° |
| 2026-04-26 20:02 | 35.39041 | -98.95114 | 29789 ft | 384 kts | 301° |
| 2026-04-26 20:02 | 35.41802 | -98.99404 | 29833 ft | 389 kts | 301° |
| 2026-04-26 20:03 | 35.44049 | -99.02903 | 30031 ft | 397 kts | 301° |
| 2026-04-26 20:03 | 35.45764 | -99.05573 | 30283 ft | 398 kts | 301° |
| 2026-04-26 20:03 | 35.47471 | -99.08225 | 30703 ft | 395 kts | 301° |
| 2026-04-26 20:03 | 35.49170 | -99.10865 | 31169 ft | 391 kts | 301° |
| 2026-04-26 20:04 | 35.50847 | -99.13473 | 31641 ft | 387 kts | 301° |
| 2026-04-26 20:04 | 35.52511 | -99.16069 | 31758 ft | 389 kts | 301° |
| 2026-04-26 20:04 | 35.55867 | -99.21317 | 31746 ft | 388 kts | 301° |
| 2026-04-26 20:05 | 35.59172 | -99.26487 | 31751 ft | 385 kts | 301° |
| 2026-04-26 20:05 | 35.62470 | -99.31655 | 31742 ft | 383 kts | 301° |
| 2026-04-26 20:06 | 35.65733 | -99.36777 | 31740 ft | 381 kts | 301° |
| 2026-04-26 20:06 | 35.69006 | -99.41922 | 31749 ft | 381 kts | 301° |
| 2026-04-26 20:07 | 35.72312 | -99.47043 | 31756 ft | 385 kts | 304° |
| 2026-04-26 20:07 | 35.76294 | -99.51609 | 31742 ft | 393 kts | 309° |
| 2026-04-26 20:08 | 35.80383 | -99.56103 | 31735 ft | 394 kts | 309° |
| 2026-04-26 20:08 | 35.84453 | -99.60604 | 31739 ft | 395 kts | 309° |
| 2026-04-26 20:09 | 35.88554 | -99.65164 | 31743 ft | 396 kts | 309° |
| 2026-04-26 20:09 | 35.92624 | -99.69703 | 31742 ft | 396 kts | 309° |
| 2026-04-26 20:10 | 35.96725 | -99.74285 | 31744 ft | 397 kts | 309° |
| 2026-04-26 20:10 | 36.00791 | -99.78834 | 31758 ft | 396 kts | 309° |
| 2026-04-26 20:11 | 36.04877 | -99.83412 | 31785 ft | 395 kts | 309° |
| 2026-04-26 20:12 | 36.10962 | -99.90242 | 31786 ft | 394 kts | 308° |
| 2026-04-26 20:12 | 36.15023 | -99.94810 | 31782 ft | 393 kts | 308° |
| 2026-04-26 20:13 | 36.19067 | -99.99364 | 31782 ft | 392 kts | 308° |
| 2026-04-26 20:13 | 36.23092 | -100.03904 | 31777 ft | 391 kts | 308° |
| 2026-04-26 20:14 | 36.27083 | -100.08412 | 31772 ft | 390 kts | 308° |
| 2026-04-26 20:14 | 36.31095 | -100.12952 | 31764 ft | 389 kts | 308° |
| 2026-04-26 20:15 | 36.35068 | -100.17455 | 31774 ft | 389 kts | 308° |
| 2026-04-26 20:15 | 36.39076 | -100.22002 | 31773 ft | 390 kts | 307° |
| 2026-04-26 20:16 | 36.43082 | -100.26555 | 31768 ft | 390 kts | 307° |
| 2026-04-26 20:16 | 36.47066 | -100.31089 | 31760 ft | 391 kts | 307° |
| 2026-04-26 20:17 | 36.51076 | -100.35658 | 31774 ft | 391 kts | 307° |
| 2026-04-26 20:17 | 36.55095 | -100.40245 | 31798 ft | 393 kts | 307° |
| 2026-04-26 20:18 | 36.59174 | -100.44918 | 31975 ft | 403 kts | 307° |
| 2026-04-26 20:18 | 36.61241 | -100.47284 | 32247 ft | 403 kts | 307° |
| 2026-04-26 20:18 | 36.63300 | -100.49636 | 32669 ft | 400 kts | 307° |
| 2026-04-26 20:18 | 36.65342 | -100.51968 | 33116 ft | 396 kts | 307° |
| 2026-04-26 20:19 | 36.67365 | -100.54281 | 33528 ft | 393 kts | 307° |
| 2026-04-26 20:19 | 36.69373 | -100.56582 | 33768 ft | 392 kts | 307° |
| 2026-04-26 20:19 | 36.71386 | -100.58900 | 33763 ft | 395 kts | 307° |
| 2026-04-26 20:20 | 36.75401 | -100.63520 | 33748 ft | 393 kts | 307° |
| 2026-04-26 20:20 | 36.79410 | -100.68133 | 33770 ft | 390 kts | 306° |
| 2026-04-26 20:21 | 36.83384 | -100.72716 | 33762 ft | 388 kts | 306° |
| 2026-04-26 20:21 | 36.87339 | -100.77286 | 33777 ft | 386 kts | 306° |
| 2026-04-26 20:22 | 36.91283 | -100.81851 | 33789 ft | 386 kts | 306° |
| 2026-04-26 20:22 | 36.95210 | -100.86402 | 33802 ft | 388 kts | 306° |
| 2026-04-26 20:23 | 36.99167 | -100.90995 | 33827 ft | 390 kts | 306° |
| 2026-04-26 20:23 | 37.03154 | -100.95626 | 33811 ft | 392 kts | 306° |
| 2026-04-26 20:24 | 37.07091 | -101.00338 | 33805 ft | 390 kts | 304° |
| 2026-04-26 20:24 | 37.10907 | -101.05186 | 33802 ft | 391 kts | 303° |
| 2026-04-26 20:25 | 37.14717 | -101.10052 | 33788 ft | 391 kts | 303° |
| 2026-04-26 20:25 | 37.18543 | -101.14916 | 33773 ft | 392 kts | 303° |
| 2026-04-26 20:26 | 37.21730 | -101.18960 | 33767 ft | 392 kts | 303° |
| 2026-04-26 20:26 | 37.25561 | -101.23822 | 33750 ft | 391 kts | 303° |
| 2026-04-26 20:27 | 37.29377 | -101.28669 | 33740 ft | 390 kts | 303° |
| 2026-04-26 20:27 | 37.33180 | -101.33508 | 33749 ft | 389 kts | 303° |
| 2026-04-26 20:28 | 37.36974 | -101.38344 | 33750 ft | 387 kts | 303° |
| 2026-04-26 20:28 | 37.40751 | -101.43165 | 33796 ft | 386 kts | 302° |
| 2026-04-26 20:29 | 37.44515 | -101.47979 | 33764 ft | 385 kts | 302° |
| 2026-04-26 20:29 | 37.48271 | -101.52789 | 33751 ft | 385 kts | 302° |
| 2026-04-26 20:30 | 37.51988 | -101.57556 | 33761 ft | 383 kts | 302° |
| 2026-04-26 20:30 | 37.55720 | -101.62349 | 33767 ft | 383 kts | 302° |
| 2026-04-26 20:31 | 37.59447 | -101.67145 | 33768 ft | 382 kts | 302° |
| 2026-04-26 20:31 | 37.63173 | -101.71947 | 33776 ft | 384 kts | 302° |
| 2026-04-26 20:32 | 37.66905 | -101.76765 | 33770 ft | 384 kts | 302° |
| 2026-04-26 20:32 | 37.70643 | -101.81596 | 33760 ft | 384 kts | 302° |
| 2026-04-26 20:33 | 37.74382 | -101.86435 | 33745 ft | 385 kts | 302° |
| 2026-04-26 20:33 | 37.78095 | -101.91248 | 33736 ft | 385 kts | 302° |
| 2026-04-26 20:34 | 37.81835 | -101.96103 | 33724 ft | 385 kts | 302° |
| 2026-04-26 20:34 | 37.85576 | -102.00967 | 33708 ft | 385 kts | 302° |
| 2026-04-26 20:35 | 37.89315 | -102.05837 | 33696 ft | 386 kts | 302° |
| 2026-04-26 20:35 | 37.93056 | -102.10716 | 33692 ft | 386 kts | 302° |
| 2026-04-26 20:36 | 37.96798 | -102.15605 | 33687 ft | 386 kts | 302° |
| 2026-04-26 20:36 | 38.00518 | -102.20472 | 33675 ft | 386 kts | 302° |
| 2026-04-26 20:37 | 38.04263 | -102.25381 | 33692 ft | 388 kts | 302° |
| 2026-04-26 20:37 | 38.08019 | -102.30312 | 33697 ft | 388 kts | 302° |
| 2026-04-26 20:38 | 38.11752 | -102.35218 | 33702 ft | 389 kts | 302° |
| 2026-04-26 20:38 | 38.15512 | -102.40169 | 33702 ft | 389 kts | 302° |
| 2026-04-26 20:39 | 38.19274 | -102.45129 | 33714 ft | 390 kts | 302° |
| 2026-04-26 20:39 | 38.23044 | -102.50109 | 33740 ft | 390 kts | 302° |
| 2026-04-26 20:40 | 38.26816 | -102.55098 | 33711 ft | 391 kts | 302° |
| 2026-04-26 20:40 | 38.30559 | -102.60058 | 33703 ft | 391 kts | 302° |
| 2026-04-26 20:41 | 38.34326 | -102.65056 | 33694 ft | 391 kts | 302° |
| 2026-04-26 20:41 | 38.38087 | -102.70056 | 33687 ft | 391 kts | 302° |
| 2026-04-26 20:42 | 38.41848 | -102.75064 | 33679 ft | 391 kts | 302° |
| 2026-04-26 20:42 | 38.45614 | -102.80088 | 33681 ft | 392 kts | 302° |
| 2026-04-26 20:43 | 38.49377 | -102.85115 | 33673 ft | 393 kts | 302° |
| 2026-04-26 20:43 | 38.53160 | -102.90176 | 33680 ft | 394 kts | 302° |
| 2026-04-26 20:44 | 38.56949 | -102.95254 | 33666 ft | 395 kts | 302° |
| 2026-04-26 20:44 | 38.60748 | -103.00353 | 33670 ft | 396 kts | 302° |
| 2026-04-26 20:45 | 38.64671 | -103.05357 | 33672 ft | 400 kts | 306° |
| 2026-04-26 20:45 | 38.66059 | -103.07147 | 33670 ft | 397 kts | 303° |
| 2026-04-26 20:46 | 38.69466 | -103.11882 | 33663 ft | 397 kts | 302° |
| 2026-04-26 20:46 | 38.73230 | -103.17106 | 33661 ft | 400 kts | 302° |
| 2026-04-26 20:47 | 38.77045 | -103.22317 | 33641 ft | 401 kts | 303° |
| 2026-04-26 20:47 | 38.80881 | -103.27519 | 33645 ft | 401 kts | 303° |
| 2026-04-26 20:48 | 38.84719 | -103.32727 | 33654 ft | 402 kts | 303° |
| 2026-04-26 20:48 | 38.88544 | -103.37921 | 33647 ft | 402 kts | 303° |
| 2026-04-26 20:49 | 38.92372 | -103.43128 | 33637 ft | 402 kts | 303° |
| 2026-04-26 20:49 | 38.96206 | -103.48354 | 33645 ft | 402 kts | 303° |
| 2026-04-26 20:50 | 39.00045 | -103.53596 | 33659 ft | 402 kts | 303° |
| 2026-04-26 20:50 | 39.03889 | -103.58856 | 33678 ft | 404 kts | 304° |
| 2026-04-26 20:51 | 39.07742 | -103.64135 | 33685 ft | 405 kts | 304° |
| 2026-04-26 20:51 | 39.11582 | -103.69406 | 33698 ft | 406 kts | 304° |
| 2026-04-26 20:52 | 39.15448 | -103.74722 | 33706 ft | 407 kts | 304° |
| 2026-04-26 20:52 | 39.19326 | -103.80062 | 33704 ft | 408 kts | 304° |
| 2026-04-26 20:53 | 39.23218 | -103.85434 | 33694 ft | 410 kts | 305° |
| 2026-04-26 20:53 | 39.27113 | -103.90817 | 33675 ft | 410 kts | 305° |
| 2026-04-26 20:54 | 39.30987 | -103.96178 | 33645 ft | 411 kts | 305° |
| 2026-04-26 20:54 | 39.34885 | -104.01583 | 33622 ft | 411 kts | 305° |
| 2026-04-26 20:55 | 39.38789 | -104.07007 | 33584 ft | 411 kts | 305° |
| 2026-04-26 20:55 | 39.42694 | -104.12445 | 33591 ft | 413 kts | 307° |
| 2026-04-26 20:56 | 39.46624 | -104.17924 | 33592 ft | 417 kts | 307° |
| 2026-04-26 20:56 | 39.50583 | -104.23455 | 33589 ft | 422 kts | 307° |
| 2026-04-26 20:57 | 39.54582 | -104.29054 | 33654 ft | 430 kts | 307° |
| 2026-04-26 20:57 | 39.58659 | -104.34766 | 33698 ft | 431 kts | 307° |
| 2026-04-26 20:58 | 39.62744 | -104.40502 | 33729 ft | 432 kts | 307° |
| 2026-04-26 20:58 | 39.66959 | -104.46067 | 33722 ft | 443 kts | 320° |
| 2026-04-26 20:58 | 39.69728 | -104.47889 | 33788 ft | 453 kts | 336° |
| 2026-04-26 20:59 | 39.72738 | -104.49161 | 33767 ft | 456 kts | 338° |
| 2026-04-26 20:59 | 39.78815 | -104.51555 | 33768 ft | 456 kts | 338° |
| 2026-04-26 21:00 | 39.84836 | -104.54003 | 33765 ft | 455 kts | 337° |
| 2026-04-26 21:00 | 39.90877 | -104.56534 | 33766 ft | 455 kts | 337° |
| 2026-04-26 21:01 | 39.96905 | -104.59070 | 33760 ft | 454 kts | 337° |
| 2026-04-26 21:01 | 39.99807 | -104.60598 | 33740 ft | 445 kts | 322° |
| 2026-04-26 21:01 | 40.02127 | -104.63140 | 33774 ft | 429 kts | 305° |
| 2026-04-26 21:01 | 40.03826 | -104.66289 | 33748 ft | 420 kts | 292° |
| 2026-04-26 21:02 | 40.04820 | -104.69557 | 33764 ft | 412 kts | 279° |
| 2026-04-26 21:02 | 40.06112 | -104.76810 | 33731 ft | 414 kts | 278° |
| 2026-04-26 21:03 | 40.07231 | -104.83370 | 33272 ft | 418 kts | 278° |
| 2026-04-26 21:03 | 40.07882 | -104.87090 | 32831 ft | 417 kts | 278° |
| 2026-04-26 21:03 | 40.08538 | -104.90784 | 32301 ft | 416 kts | 279° |
| 2026-04-26 21:03 | 40.09195 | -104.94444 | 31839 ft | 411 kts | 279° |
| 2026-04-26 21:04 | 40.09835 | -104.97996 | 31570 ft | 404 kts | 279° |
| 2026-04-26 21:04 | 40.10478 | -105.01590 | 30888 ft | 408 kts | 279° |
| 2026-04-26 21:04 | 40.11121 | -105.05193 | 30402 ft | 406 kts | 279° |
| 2026-04-26 21:04 | 40.11761 | -105.08786 | 29949 ft | 403 kts | 279° |
| 2026-04-26 21:05 | 40.12394 | -105.12336 | 29448 ft | 400 kts | 279° |
| 2026-04-26 21:05 | 40.13016 | -105.15834 | 29007 ft | 395 kts | 279° |
| 2026-04-26 21:05 | 40.13634 | -105.19322 | 28521 ft | 392 kts | 278° |
| 2026-04-26 21:05 | 40.13931 | -105.22807 | 28027 ft | 381 kts | 262° |
| 2026-04-26 21:06 | 40.13724 | -105.26218 | 27647 ft | 375 kts | 262° |
| 2026-04-26 21:06 | 40.13521 | -105.29569 | 27213 ft | 373 kts | 261° |
| 2026-04-26 21:06 | 40.13329 | -105.32944 | 26773 ft | 370 kts | 262° |
| 2026-04-26 21:06 | 40.13149 | -105.36290 | 26345 ft | 368 kts | 262° |
| 2026-04-26 21:07 | 40.12975 | -105.39616 | 25909 ft | 366 kts | 262° |
| 2026-04-26 21:07 | 40.12804 | -105.42927 | 25490 ft | 364 kts | 262° |
| 2026-04-26 21:07 | 40.12634 | -105.46223 | 25077 ft | 362 kts | 262° |
| 2026-04-26 21:07 | 40.12464 | -105.49496 | 24658 ft | 360 kts | 262° |
| 2026-04-26 21:08 | 40.12296 | -105.52753 | 24247 ft | 358 kts | 262° |
| 2026-04-26 21:08 | 40.12129 | -105.55970 | 24104 ft | 350 kts | 262° |
| 2026-04-26 21:08 | 40.11966 | -105.59113 | 23936 ft | 343 kts | 262° |
| 2026-04-26 21:08 | 40.11805 | -105.62190 | 23813 ft | 338 kts | 262° |
| 2026-04-26 21:09 | 40.11644 | -105.65267 | 23588 ft | 338 kts | 262° |
| 2026-04-26 21:09 | 40.11490 | -105.68311 | 23030 ft | 340 kts | 262° |
| 2026-04-26 21:09 | 40.11341 | -105.71374 | 22666 ft | 337 kts | 261° |
| 2026-04-26 21:09 | 40.11195 | -105.74374 | 22340 ft | 333 kts | 262° |
| 2026-04-26 21:10 | 40.11044 | -105.77389 | 21891 ft | 332 kts | 262° |
| 2026-04-26 21:10 | 40.10894 | -105.80402 | 21478 ft | 330 kts | 262° |
| 2026-04-26 21:10 | 40.10748 | -105.83363 | 21200 ft | 324 kts | 262° |
| 2026-04-26 21:10 | 40.10602 | -105.86295 | 20774 ft | 320 kts | 261° |
| 2026-04-26 21:11 | 40.10457 | -105.89173 | 20394 ft | 314 kts | 262° |
| 2026-04-26 21:11 | 40.10311 | -105.92019 | 19778 ft | 315 kts | 262° |
| 2026-04-26 21:11 | 40.10163 | -105.94870 | 19004 ft | 316 kts | 263° |
| 2026-04-26 21:11 | 40.10015 | -105.97742 | 18419 ft | 316 kts | 263° |
| 2026-04-26 21:12 | 40.09865 | -106.00604 | 17911 ft | 315 kts | 263° |
| 2026-04-26 21:12 | 40.09717 | -106.03441 | 17363 ft | 311 kts | 263° |
| 2026-04-26 21:12 | 40.09573 | -106.06251 | 16836 ft | 308 kts | 263° |
| 2026-04-26 21:12 | 40.09430 | -106.09032 | 16315 ft | 306 kts | 263° |
| 2026-04-26 21:13 | 40.09285 | -106.11780 | 15960 ft | 301 kts | 263° |
| 2026-04-26 21:13 | 40.09145 | -106.14448 | 15904 ft | 289 kts | 263° |
| 2026-04-26 21:13 | 40.09007 | -106.17065 | 15872 ft | 290 kts | 263° |
| 2026-04-26 21:13 | 40.08678 | -106.19643 | 15803 ft | 286 kts | 249° |
| 2026-04-26 21:14 | 40.07972 | -106.22015 | 15686 ft | 282 kts | 247° |
| 2026-04-26 21:14 | 40.07476 | -106.23611 | 15586 ft | 281 kts | 247° |
| 2026-04-26 21:14 | 40.06742 | -106.25980 | 15481 ft | 281 kts | 247° |
| 2026-04-26 21:14 | 40.05798 | -106.29057 | 15304 ft | 271 kts | 247° |
| 2026-04-26 21:15 | 40.05115 | -106.31307 | 15185 ft | 262 kts | 247° |
| 2026-04-26 21:15 | 40.04455 | -106.33491 | 15072 ft | 254 kts | 248° |
| 2026-04-26 21:15 | 40.04027 | -106.34910 | 15005 ft | 244 kts | 247° |
| 2026-04-26 21:15 | 40.03428 | -106.36905 | 14923 ft | 230 kts | 247° |
| 2026-04-26 21:16 | 40.02849 | -106.38824 | 14805 ft | 225 kts | 247° |
| 2026-04-26 21:16 | 40.02283 | -106.40695 | 14701 ft | 225 kts | 247° |
| 2026-04-26 21:16 | 40.01694 | -106.42593 | 14622 ft | 227 kts | 242° |
| 2026-04-26 21:16 | 40.00701 | -106.44198 | 14541 ft | 230 kts | 223° |
| 2026-04-26 21:17 | 39.99425 | -106.45492 | 14458 ft | 234 kts | 219° |
| 2026-04-26 21:17 | 39.98122 | -106.46762 | 14320 ft | 231 kts | 219° |
| 2026-04-26 21:17 | 39.96847 | -106.48011 | 14254 ft | 229 kts | 219° |
| 2026-04-26 21:17 | 39.95595 | -106.49237 | 14131 ft | 228 kts | 220° |
| 2026-04-26 21:18 | 39.94333 | -106.50474 | 14028 ft | 225 kts | 220° |
| 2026-04-26 21:18 | 39.93092 | -106.51693 | 13937 ft | 224 kts | 219° |
| 2026-04-26 21:18 | 39.91837 | -106.52929 | 13804 ft | 229 kts | 220° |
| 2026-04-26 21:18 | 39.90561 | -106.54187 | 13621 ft | 229 kts | 220° |
| 2026-04-26 21:19 | 39.89317 | -106.55414 | 13477 ft | 226 kts | 220° |
| 2026-04-26 21:19 | 39.88050 | -106.56655 | 13293 ft | 229 kts | 220° |
| 2026-04-26 21:19 | 39.86783 | -106.57897 | 13087 ft | 227 kts | 220° |
| 2026-04-26 21:19 | 39.85529 | -106.59141 | 12935 ft | 227 kts | 220° |
| 2026-04-26 21:20 | 39.84269 | -106.60378 | 12747 ft | 226 kts | 220° |
| 2026-04-26 21:20 | 39.83001 | -106.61525 | 12603 ft | 220 kts | 208° |
| 2026-04-26 21:20 | 39.81531 | -106.62029 | 12422 ft | 218 kts | 196° |
| 2026-04-26 21:20 | 39.80044 | -106.62272 | 12186 ft | 211 kts | 193° |
| 2026-04-26 21:21 | 39.78618 | -106.62424 | 12010 ft | 200 kts | 193° |
| 2026-04-26 21:21 | 39.77240 | -106.62652 | 11819 ft | 200 kts | 193° |
| 2026-04-26 21:21 | 39.75854 | -106.62890 | 11632 ft | 200 kts | 194° |
| 2026-04-26 21:21 | 39.74479 | -106.63122 | 11404 ft | 198 kts | 196° |
| 2026-04-26 21:22 | 39.73120 | -106.63348 | 11205 ft | 198 kts | 192° |
| 2026-04-26 21:22 | 39.71742 | -106.63568 | 11056 ft | 201 kts | 192° |
| 2026-04-26 21:22 | 39.70383 | -106.63833 | 10884 ft | 197 kts | 202° |
| 2026-04-26 21:23 | 39.68240 | -106.66104 | 10483 ft | 214 kts | 228° |
| 2026-04-26 21:23 | 39.67232 | -106.67550 | 10277 ft | 215 kts | 232° |
| 2026-04-26 21:23 | 39.66672 | -106.69316 | 10072 ft | 210 kts | 261° |
| 2026-04-26 21:23 | 39.66489 | -106.71151 | 9846 ft | 201 kts | 259° |
| 2026-04-26 21:24 | 39.66309 | -106.72952 | 9465 ft | 204 kts | 258° |
| 2026-04-26 21:24 | 39.66109 | -106.74752 | 9152 ft | 199 kts | 260° |
| 2026-04-26 21:24 | 39.65918 | -106.76513 | 8886 ft | 196 kts | 261° |
| 2026-04-26 21:24 | 39.65726 | -106.78280 | 8600 ft | 205 kts | 262° |
| 2026-04-26 21:25 | 39.65526 | -106.80128 | 8295 ft | 208 kts | 261° |
| 2026-04-26 21:25 | 39.65335 | -106.81954 | 8033 ft | 200 kts | 261° |
| 2026-04-26 21:25 | 39.65182 | -106.83657 | 7883 ft | 179 kts | 260° |
| 2026-04-26 21:25 | 39.65044 | -106.85201 | 7613 ft | 165 kts | 260° |
| 2026-04-26 21:26 | 39.64852 | -106.86624 | 7330 ft | 157 kts | 257° |
| 2026-04-26 21:26 | 39.64672 | -106.87988 | 7069 ft | 150 kts | 263° |
| 2026-04-26 21:26 | 39.64526 | -106.89367 | 6782 ft | 162 kts | 263° |
| 2026-04-26 21:26 | 39.64369 | -106.90780 | 6545 ft | 150 kts | 260° |
| 2026-04-26 21:27 | 39.64243 | -106.91915 | 6501 ft | 97 kts | 261° |
| 2026-04-26 21:27 | 39.64179 | -106.92498 | 6485 ft | 34 kts | 260° |
| 2026-04-26 21:27 | 39.64152 | -106.92734 | 6484 ft | 11 kts | 263° |
| 2026-04-26 21:27 | 39.64098 | -106.92795 | 6471 ft | 12 kts | 184° |
| 2026-04-26 21:28 | 39.64044 | -106.92763 | 6470 ft | 8 kts | 121° |
| 2026-04-26 21:28 | 39.64043 | -106.92710 | 6476 ft | 5 kts | 80° |
| 2026-04-26 21:28 | 39.64048 | -106.92675 | 6483 ft | 4 kts | 80° |
| 2026-04-26 21:28 | 39.64053 | -106.92626 | 6483 ft | 7 kts | 83° |
| 2026-04-26 21:29 | 39.64061 | -106.92550 | 6487 ft | 10 kts | 81° |
| 2026-04-26 21:29 | 39.64074 | -106.92438 | 6488 ft | 15 kts | 82° |
| 2026-04-26 21:29 | 39.64091 | -106.92282 | 6488 ft | 19 kts | 83° |
| 2026-04-26 21:29 | 39.64110 | -106.92112 | 6500 ft | 19 kts | 82° |
| 2026-04-26 21:30 | 39.64128 | -106.91944 | 6508 ft | 18 kts | 81° |
| 2026-04-26 21:30 | 39.64146 | -106.91780 | 6515 ft | 18 kts | 82° |
| 2026-04-26 21:30 | 39.64161 | -106.91654 | 6521 ft | 8 kts | 82° |
| 2026-04-26 21:30 | 39.64162 | -106.91599 | 6524 ft | 6 kts | 104° |
| 2026-04-26 21:31 | 39.64125 | -106.91549 | 6525 ft | 9 kts | 126° |
| 2026-04-26 21:31 | 39.64109 | -106.91493 | 6526 ft | 3 kts | 144° |
| 2026-04-26 21:31 | 39.64094 | -106.91489 | 6526 ft | 3 kts | 171° |
| 2026-04-26 21:31 | 39.64075 | -106.91485 | 6526 ft | 2 kts | 172° |
| 2026-04-26 21:32 | 39.64064 | -106.91483 | 6526 ft | 0 kts | 172° |